Terminal Aerodrome Forecast
Issued by NWS Grand Rapids, MI

Home | Current Version | Previous Version | Text Only | Print | Product List | Glossary On
Versions: 1 2 3 4 5 6 7 8 9 10 11 12 13 14 15 16 17 18 19 20 21 22 23 24
649
FTUS43 KGRR 212340
TAFGRR
TAF
KGRR 212340Z 2200/2224 10008KT P6SM VCTS BKN060CB
     FM220100 15004KT P6SM SCT070
     FM220900 17005KT 6SM HZ BKN150
     FM221500 20007KT P6SM SCT040 SCT150=

USA.gov is the U.S. government's official web portal to all federal, state and local government web resources and services.